sensor_id;sensor_type;location;lat;lon;timestamp;pressure;altitude;pressure_sealevel;temperature;humidity
77799;BME280;66989;50.426;15.352;2023-07-22T00:00:37;97868.44;;;16.33;91.74
77799;BME280;66989;50.426;15.352;2023-07-22T00:03:03;97874.53;;;16.25;91.73
77799;BME280;66989;50.426;15.352;2023-07-22T00:05:28;97872.53;;;16.19;91.74
77799;BME280;66989;50.426;15.352;2023-07-22T00:07:54;97877.66;;;16.13;92.04
77799;BME280;66989;50.426;15.352;2023-07-22T00:10:19;97881.44;;;16.02;92.60
77799;BME280;66989;50.426;15.352;2023-07-22T00:12:44;97878.44;;;15.97;92.66
77799;BME280;66989;50.426;15.352;2023-07-22T00:15:10;97873.75;;;15.91;92.59
77799;BME280;66989;50.426;15.352;2023-07-22T00:17:38;97876.38;;;15.82;93.59
77799;BME280;66989;50.426;15.352;2023-07-22T00:20:03;97870.03;;;15.75;93.74
77799;BME280;66989;50.426;15.352;2023-07-22T00:22:30;97876.13;;;15.68;93.90
77799;BME280;66989;50.426;15.352;2023-07-22T00:24:56;97875.75;;;15.63;94.08
77799;BME280;66989;50.426;15.352;2023-07-22T00:27:25;97881.53;;;15.58;94.60
77799;BME280;66989;50.426;15.352;2023-07-22T00:29:50;97887.84;;;15.57;94.46
77799;BME280;66989;50.426;15.352;2023-07-22T00:32:16;97893.47;;;15.54;94.09
77799;BME280;66989;50.426;15.352;2023-07-22T00:34:41;97891.28;;;15.49;94.30
77799;BME280;66989;50.426;15.352;2023-07-22T00:37:06;97900.41;;;15.47;94.37
77799;BME280;66989;50.426;15.352;2023-07-22T00:39:32;97897.53;;;15.40;94.27
77799;BME280;66989;50.426;15.352;2023-07-22T00:41:57;97892.38;;;15.39;94.90
77799;BME280;66989;50.426;15.352;2023-07-22T00:44:24;97897.16;;;15.35;94.88
77799;BME280;66989;50.426;15.352;2023-07-22T00:46:53;97892.63;;;15.27;94.37
77799;BME280;66989;50.426;15.352;2023-07-22T00:49:19;97892.25;;;15.22;94.72
77799;BME280;66989;50.426;15.352;2023-07-22T00:51:44;97893.53;;;15.18;95.56
77799;BME280;66989;50.426;15.352;2023-07-22T00:54:10;97900.25;;;15.13;95.50
77799;BME280;66989;50.426;15.352;2023-07-22T00:56:36;97897.47;;;15.14;95.59
77799;BME280;66989;50.426;15.352;2023-07-22T00:59:02;97899.59;;;15.11;95.92
77799;BME280;66989;50.426;15.352;2023-07-22T01:01:29;97895.44;;;15.08;95.43
77799;BME280;66989;50.426;15.352;2023-07-22T01:03:54;97896.72;;;15.04;95.50
77799;BME280;66989;50.426;15.352;2023-07-22T01:06:21;97896.19;;;15.00;95.38
77799;BME280;66989;50.426;15.352;2023-07-22T01:08:46;97901.94;;;14.96;95.42
77799;BME280;66989;50.426;15.352;2023-07-22T01:11:13;97909.41;;;14.92;95.66
77799;BME280;66989;50.426;15.352;2023-07-22T01:13:39;97908.88;;;14.89;95.72
77799;BME280;66989;50.426;15.352;2023-07-22T01:16:05;97911.53;;;14.89;95.70
77799;BME280;66989;50.426;15.352;2023-07-22T01:18:32;97912.50;;;14.88;96.30
77799;BME280;66989;50.426;15.352;2023-07-22T01:20:58;97904.38;;;14.89;96.09
77799;BME280;66989;50.426;15.352;2023-07-22T01:23:24;97908.88;;;14.89;95.85
77799;BME280;66989;50.426;15.352;2023-07-22T01:25:50;97912.34;;;14.89;95.99
77799;BME280;66989;50.426;15.352;2023-07-22T01:28:15;97910.53;;;14.90;95.96
77799;BME280;66989;50.426;15.352;2023-07-22T01:30:42;97904.22;;;14.91;96.39
77799;BME280;66989;50.426;15.352;2023-07-22T01:33:08;97917.22;;;14.94;96.38
77799;BME280;66989;50.426;15.352;2023-07-22T01:35:33;97918.59;;;14.98;96.50
77799;BME280;66989;50.426;15.352;2023-07-22T01:37:58;97915.59;;;15.01;96.83
77799;BME280;66989;50.426;15.352;2023-07-22T01:40:25;97921.28;;;15.06;96.61
77799;BME280;66989;50.426;15.352;2023-07-22T01:42:51;97923.50;;;15.11;96.28
77799;BME280;66989;50.426;15.352;2023-07-22T01:45:16;97922.03;;;15.16;96.13
77799;BME280;66989;50.426;15.352;2023-07-22T01:47:41;97926.22;;;15.19;96.38
77799;BME280;66989;50.426;15.352;2023-07-22T01:50:07;97933.78;;;15.23;95.98
77799;BME280;66989;50.426;15.352;2023-07-22T01:52:33;97931.25;;;15.22;95.76
77799;BME280;66989;50.426;15.352;2023-07-22T01:54:59;97922.44;;;15.21;95.58
77799;BME280;66989;50.426;15.352;2023-07-22T01:57:24;97925.25;;;15.20;95.73
77799;BME280;66989;50.426;15.352;2023-07-22T01:59:50;97920.38;;;15.15;95.80
77799;BME280;66989;50.426;15.352;2023-07-22T02:02:15;97927.16;;;15.10;95.58
77799;BME280;66989;50.426;15.352;2023-07-22T02:04:41;97923.94;;;15.06;95.64
77799;BME280;66989;50.426;15.352;2023-07-22T02:07:06;97920.91;;;15.01;95.99
77799;BME280;66989;50.426;15.352;2023-07-22T02:09:32;97915.09;;;14.97;95.66
77799;BME280;66989;50.426;15.352;2023-07-22T02:11:58;97919.88;;;14.94;96.23
77799;BME280;66989;50.426;15.352;2023-07-22T02:14:24;97919.31;;;14.90;96.39
77799;BME280;66989;50.426;15.352;2023-07-22T02:16:49;97928.13;;;14.91;96.33
77799;BME280;66989;50.426;15.352;2023-07-22T02:19:14;97926.47;;;14.90;96.18
77799;BME280;66989;50.426;15.352;2023-07-22T02:21:40;97932.91;;;14.87;95.68
77799;BME280;66989;50.426;15.352;2023-07-22T02:24:07;97927.72;;;14.86;96.01
77799;BME280;66989;50.426;15.352;2023-07-22T02:26:32;97941.34;;;14.83;95.91
77799;BME280;66989;50.426;15.352;2023-07-22T02:28:57;97942.28;;;14.82;96.05
77799;BME280;66989;50.426;15.352;2023-07-22T02:31:23;97939.25;;;14.76;95.46
77799;BME280;66989;50.426;15.352;2023-07-22T02:33:48;97939.72;;;14.72;95.91
77799;BME280;66989;50.426;15.352;2023-07-22T02:36:14;97936.69;;;14.67;96.34
77799;BME280;66989;50.426;15.352;2023-07-22T02:38:39;97938.78;;;14.63;96.46
77799;BME280;66989;50.426;15.352;2023-07-22T02:41:05;97939.25;;;14.59;96.07
77799;BME280;66989;50.426;15.352;2023-07-22T02:43:33;97944.16;;;14.54;96.30
77799;BME280;66989;50.426;15.352;2023-07-22T02:46:03;97946.25;;;14.50;96.29
77799;BME280;66989;50.426;15.352;2023-07-22T02:48:29;97955.81;;;14.43;96.31
77799;BME280;66989;50.426;15.352;2023-07-22T02:51:08;97953.75;;;14.37;96.49
77799;BME280;66989;50.426;15.352;2023-07-22T02:53:34;97944.25;;;14.34;96.63
77799;BME280;66989;50.426;15.352;2023-07-22T02:56:01;97956.69;;;14.34;96.94
77799;BME280;66989;50.426;15.352;2023-07-22T02:58:27;97963.81;;;14.33;97.29
77799;BME280;66989;50.426;15.352;2023-07-22T03:00:52;97970.09;;;14.32;97.26
77799;BME280;66989;50.426;15.352;2023-07-22T03:03:18;97963.97;;;14.32;97.01
77799;BME280;66989;50.426;15.352;2023-07-22T03:05:44;97965.06;;;14.29;96.29
77799;BME280;66989;50.426;15.352;2023-07-22T03:08:10;97961.19;;;14.23;95.91
77799;BME280;66989;50.426;15.352;2023-07-22T03:10:35;97961.78;;;14.17;95.95
77799;BME280;66989;50.426;15.352;2023-07-22T03:13:00;97974.38;;;14.15;96.06
77799;BME280;66989;50.426;15.352;2023-07-22T03:15:28;97979.28;;;14.10;95.59
77799;BME280;66989;50.426;15.352;2023-07-22T03:17:54;97982.03;;;14.09;96.07
77799;BME280;66989;50.426;15.352;2023-07-22T03:20:21;97988.34;;;14.08;95.90
77799;BME280;66989;50.426;15.352;2023-07-22T03:22:47;97991.13;;;14.06;95.70
77799;BME280;66989;50.426;15.352;2023-07-22T03:25:15;97998.69;;;14.01;95.64
77799;BME280;66989;50.426;15.352;2023-07-22T03:27:43;97988.63;;;14.05;96.31
77799;BME280;66989;50.426;15.352;2023-07-22T03:30:10;97990.97;;;14.08;96.16
77799;BME280;66989;50.426;15.352;2023-07-22T03:32:36;97995.03;;;14.12;96.03
77799;BME280;66989;50.426;15.352;2023-07-22T03:35:01;98000.88;;;14.15;95.88
77799;BME280;66989;50.426;15.352;2023-07-22T03:37:28;98004.88;;;14.19;95.34
77799;BME280;66989;50.426;15.352;2023-07-22T03:39:54;98007.41;;;14.21;95.58
77799;BME280;66989;50.426;15.352;2023-07-22T03:42:19;98009.91;;;14.22;95.09
77799;BME280;66989;50.426;15.352;2023-07-22T03:44:45;98006.44;;;14.22;94.96
77799;BME280;66989;50.426;15.352;2023-07-22T03:47:12;98008.09;;;14.23;95.26
77799;BME280;66989;50.426;15.352;2023-07-22T03:49:38;98012.28;;;14.25;95.14
77799;BME280;66989;50.426;15.352;2023-07-22T03:52:04;98017.59;;;14.25;94.56
77799;BME280;66989;50.426;15.352;2023-07-22T03:54:30;98019.25;;;14.27;94.34
77799;BME280;66989;50.426;15.352;2023-07-22T03:56:55;98014.78;;;14.27;94.53
77799;BME280;66989;50.426;15.352;2023-07-22T03:59:21;98012.28;;;14.25;95.01
77799;BME280;66989;50.426;15.352;2023-07-22T04:01:46;98011.97;;;14.29;94.65
77799;BME280;66989;50.426;15.352;2023-07-22T04:04:12;98016.84;;;14.33;94.54
77799;BME280;66989;50.426;15.352;2023-07-22T04:06:38;98031.34;;;14.39;94.78
77799;BME280;66989;50.426;15.352;2023-07-22T04:09:03;98021.13;;;14.44;94.43
77799;BME280;66989;50.426;15.352;2023-07-22T04:11:29;98024.03;;;14.50;94.47
77799;BME280;66989;50.426;15.352;2023-07-22T04:13:54;98031.56;;;14.55;93.61
77799;BME280;66989;50.426;15.352;2023-07-22T04:16:19;98032.78;;;14.61;93.00
77799;BME280;66989;50.426;15.352;2023-07-22T04:18:45;98033.06;;;14.67;93.45
77799;BME280;66989;50.426;15.352;2023-07-22T04:21:11;98042.63;;;14.78;93.25
77799;BME280;66989;50.426;15.352;2023-07-22T04:23:37;98048.84;;;14.87;92.49
77799;BME280;66989;50.426;15.352;2023-07-22T04:26:03;98046.97;;;14.97;92.24
77799;BME280;66989;50.426;15.352;2023-07-22T04:28:33;98042.78;;;15.04;91.88
77799;BME280;66989;50.426;15.352;2023-07-22T04:30:59;98042.31;;;15.09;91.58
77799;BME280;66989;50.426;15.352;2023-07-22T04:33:26;98049.84;;;15.13;91.54
77799;BME280;66989;50.426;15.352;2023-07-22T04:35:53;98056.94;;;15.13;90.81
77799;BME280;66989;50.426;15.352;2023-07-22T04:38:19;98071.38;;;15.10;90.46
77799;BME280;66989;50.426;15.352;2023-07-22T04:40:44;98078.06;;;15.14;90.83
77799;BME280;66989;50.426;15.352;2023-07-22T04:43:10;98067.13;;;15.17;90.64
77799;BME280;66989;50.426;15.352;2023-07-22T04:45:35;98075.09;;;15.17;90.34
77799;BME280;66989;50.426;15.352;2023-07-22T04:48:01;98074.81;;;15.20;89.71
77799;BME280;66989;50.426;15.352;2023-07-22T04:50:27;98068.53;;;15.21;89.50
77799;BME280;66989;50.426;15.352;2023-07-22T04:52:55;98075.78;;;15.29;89.39
77799;BME280;66989;50.426;15.352;2023-07-22T04:55:21;98084.13;;;15.34;89.31
77799;BME280;66989;50.426;15.352;2023-07-22T04:57:46;98079.19;;;15.39;89.55
77799;BME280;66989;50.426;15.352;2023-07-22T05:00:12;98085.56;;;15.46;88.94
77799;BME280;66989;50.426;15.352;2023-07-22T05:02:46;98076.53;;;15.57;88.78
77799;BME280;66989;50.426;15.352;2023-07-22T05:05:15;98078.13;;;15.68;88.34
77799;BME280;66989;50.426;15.352;2023-07-22T05:07:40;98083.28;;;15.87;87.80
77799;BME280;66989;50.426;15.352;2023-07-22T05:10:07;98087.72;;;16.04;86.90
77799;BME280;66989;50.426;15.352;2023-07-22T05:12:40;98094.25;;;16.28;86.50
77799;BME280;66989;50.426;15.352;2023-07-22T05:15:06;98099.06;;;16.50;84.78
77799;BME280;66989;50.426;15.352;2023-07-22T05:17:32;98099.38;;;16.73;83.59
77799;BME280;66989;50.426;15.352;2023-07-22T05:19:58;98101.28;;;16.97;82.89
77799;BME280;66989;50.426;15.352;2023-07-22T05:22:23;98095.59;;;17.26;82.43
77799;BME280;66989;50.426;15.352;2023-07-22T05:24:49;98097.97;;;17.46;80.32
77799;BME280;66989;50.426;15.352;2023-07-22T05:27:14;98096.00;;;17.56;79.46
77799;BME280;66989;50.426;15.352;2023-07-22T05:29:40;98102.69;;;17.68;78.85
77799;BME280;66989;50.426;15.352;2023-07-22T05:32:06;98101.38;;;17.80;79.18
77799;BME280;66989;50.426;15.352;2023-07-22T05:34:31;98101.72;;;17.85;77.93
77799;BME280;66989;50.426;15.352;2023-07-22T05:36:57;98108.72;;;17.95;78.43
77799;BME280;66989;50.426;15.352;2023-07-22T05:39:22;98100.53;;;17.96;78.58
77799;BME280;66989;50.426;15.352;2023-07-22T05:41:47;98106.88;;;17.95;78.65
77799;BME280;66989;50.426;15.352;2023-07-22T05:44:13;98106.06;;;17.95;78.81
77799;BME280;66989;50.426;15.352;2023-07-22T05:46:38;98102.38;;;17.96;78.28
77799;BME280;66989;50.426;15.352;2023-07-22T05:49:04;98106.06;;;17.95;78.29
77799;BME280;66989;50.426;15.352;2023-07-22T05:51:30;98098.53;;;17.90;77.65
77799;BME280;66989;50.426;15.352;2023-07-22T05:53:55;98104.03;;;17.97;78.19
77799;BME280;66989;50.426;15.352;2023-07-22T05:56:21;98096.53;;;18.17;78.03
77799;BME280;66989;50.426;15.352;2023-07-22T05:58:46;98095.53;;;18.34;76.76
77799;BME280;66989;50.426;15.352;2023-07-22T06:01:12;98092.16;;;18.48;75.46
77799;BME280;66989;50.426;15.352;2023-07-22T06:03:38;98101.00;;;18.57;74.19
77799;BME280;66989;50.426;15.352;2023-07-22T06:06:03;98095.47;;;18.66;72.90
77799;BME280;66989;50.426;15.352;2023-07-22T06:08:29;98111.66;;;18.81;73.55
77799;BME280;66989;50.426;15.352;2023-07-22T06:10:56;98106.06;;;18.99;72.40
77799;BME280;66989;50.426;15.352;2023-07-22T06:13:21;98113.06;;;19.08;72.04
77799;BME280;66989;50.426;15.352;2023-07-22T06:15:47;98114.31;;;19.21;71.41
77799;BME280;66989;50.426;15.352;2023-07-22T06:18:12;98116.44;;;19.33;71.24
77799;BME280;66989;50.426;15.352;2023-07-22T06:20:38;98116.88;;;19.45;70.40
77799;BME280;66989;50.426;15.352;2023-07-22T06:23:04;98122.66;;;19.26;71.43
77799;BME280;66989;50.426;15.352;2023-07-22T06:25:29;98126.34;;;19.25;72.70
77799;BME280;66989;50.426;15.352;2023-07-22T06:27:54;98125.50;;;19.24;69.99
77799;BME280;66989;50.426;15.352;2023-07-22T06:30:20;98125.81;;;19.29;69.43
77799;BME280;66989;50.426;15.352;2023-07-22T06:32:46;98138.34;;;19.37;69.14
77799;BME280;66989;50.426;15.352;2023-07-22T06:35:11;98140.31;;;19.43;68.45
77799;BME280;66989;50.426;15.352;2023-07-22T06:37:37;98135.41;;;19.47;68.90
77799;BME280;66989;50.426;15.352;2023-07-22T06:40:03;98133.13;;;19.43;68.42
77799;BME280;66989;50.426;15.352;2023-07-22T06:42:29;98130.25;;;19.45;69.11
77799;BME280;66989;50.426;15.352;2023-07-22T06:44:55;98138.19;;;19.30;69.33
77799;BME280;66989;50.426;15.352;2023-07-22T06:47:20;98140.28;;;19.04;69.43
77799;BME280;66989;50.426;15.352;2023-07-22T06:49:46;98143.47;;;18.99;71.08
77799;BME280;66989;50.426;15.352;2023-07-22T06:52:11;98137.13;;;19.00;69.25
77799;BME280;66989;50.426;15.352;2023-07-22T06:54:37;98139.78;;;19.00;69.09
77799;BME280;66989;50.426;15.352;2023-07-22T06:57:02;98138.19;;;19.30;67.60
77799;BME280;66989;50.426;15.352;2023-07-22T06:59:28;98136.97;;;19.41;66.20
77799;BME280;66989;50.426;15.352;2023-07-22T07:01:54;98137.41;;;19.53;65.86
77799;BME280;66989;50.426;15.352;2023-07-22T07:04:19;98136.59;;;19.83;63.59
77799;BME280;66989;50.426;15.352;2023-07-22T07:06:44;98149.41;;;19.88;63.17
77799;BME280;66989;50.426;15.352;2023-07-22T07:09:11;98148.47;;;20.04;63.65
77799;BME280;66989;50.426;15.352;2023-07-22T07:11:36;98146.56;;;20.12;62.51
77799;BME280;66989;50.426;15.352;2023-07-22T07:14:01;98142.16;;;20.42;62.08
77799;BME280;66989;50.426;15.352;2023-07-22T07:16:31;98140.41;;;20.87;60.67
77799;BME280;66989;50.426;15.352;2023-07-22T07:18:57;98145.66;;;21.25;58.35
77799;BME280;66989;50.426;15.352;2023-07-22T07:21:25;98154.72;;;21.39;58.20
77799;BME280;66989;50.426;15.352;2023-07-22T07:23:52;98156.94;;;21.20;58.87
77799;BME280;66989;50.426;15.352;2023-07-22T07:26:23;98153.50;;;21.12;60.14
77799;BME280;66989;50.426;15.352;2023-07-22T07:28:49;98157.22;;;21.11;58.80
77799;BME280;66989;50.426;15.352;2023-07-22T07:31:16;98151.03;;;21.25;59.32
77799;BME280;66989;50.426;15.352;2023-07-22T07:33:42;98156.53;;;21.53;57.92
77799;BME280;66989;50.426;15.352;2023-07-22T07:36:07;98151.56;;;21.86;58.10
77799;BME280;66989;50.426;15.352;2023-07-22T07:38:33;98150.19;;;22.33;57.73
77799;BME280;66989;50.426;15.352;2023-07-22T07:41:02;98150.41;;;22.60;56.06
77799;BME280;66989;50.426;15.352;2023-07-22T07:43:30;98154.38;;;22.64;54.75
77799;BME280;66989;50.426;15.352;2023-07-22T07:46:22;98155.03;;;22.94;53.87
77799;BME280;66989;50.426;15.352;2023-07-22T07:48:49;98156.63;;;23.23;53.42
77799;BME280;66989;50.426;15.352;2023-07-22T07:51:16;98154.44;;;23.40;52.57
77799;BME280;66989;50.426;15.352;2023-07-22T07:53:42;98159.47;;;23.49;52.95
77799;BME280;66989;50.426;15.352;2023-07-22T07:56:09;98155.19;;;23.27;51.81
77799;BME280;66989;50.426;15.352;2023-07-22T07:58:36;98158.44;;;23.09;52.53
77799;BME280;66989;50.426;15.352;2023-07-22T08:01:01;98159.72;;;22.85;53.29
77799;BME280;66989;50.426;15.352;2023-07-22T08:03:27;98162.81;;;22.61;54.06
77799;BME280;66989;50.426;15.352;2023-07-22T08:05:52;98161.44;;;22.43;54.35
77799;BME280;66989;50.426;15.352;2023-07-22T08:08:18;98158.00;;;22.49;54.96
77799;BME280;66989;50.426;15.352;2023-07-22T08:10:43;98150.81;;;22.85;54.65
77799;BME280;66989;50.426;15.352;2023-07-22T08:13:10;98149.91;;;23.05;53.70
77799;BME280;66989;50.426;15.352;2023-07-22T08:15:35;98150.19;;;23.24;51.94
77799;BME280;66989;50.426;15.352;2023-07-22T08:18:01;98147.50;;;23.24;51.04
77799;BME280;66989;50.426;15.352;2023-07-22T08:20:26;98162.22;;;23.28;51.93
77799;BME280;66989;50.426;15.352;2023-07-22T08:22:52;98157.22;;;23.18;51.85
77799;BME280;66989;50.426;15.352;2023-07-22T08:25:17;98160.69;;;23.40;51.36
77799;BME280;66989;50.426;15.352;2023-07-22T08:27:43;98166.34;;;23.24;51.62
77799;BME280;66989;50.426;15.352;2023-07-22T08:30:08;98162.81;;;23.51;52.60
77799;BME280;66989;50.426;15.352;2023-07-22T08:32:34;98161.25;;;23.77;51.52
77799;BME280;66989;50.426;15.352;2023-07-22T08:34:59;98168.97;;;24.06;50.99
77799;BME280;66989;50.426;15.352;2023-07-22T08:37:24;98169.66;;;24.42;49.84
77799;BME280;66989;50.426;15.352;2023-07-22T08:39:50;98165.53;;;24.52;48.60
77799;BME280;66989;50.426;15.352;2023-07-22T08:42:18;98158.06;;;25.01;48.67
77799;BME280;66989;50.426;15.352;2023-07-22T08:44:48;98166.38;;;24.66;48.71
77799;BME280;66989;50.426;15.352;2023-07-22T08:47:15;98170.09;;;24.45;49.57
77799;BME280;66989;50.426;15.352;2023-07-22T08:49:46;98164.03;;;24.17;49.72
77799;BME280;66989;50.426;15.352;2023-07-22T08:52:14;98177.03;;;23.87;50.80
77799;BME280;66989;50.426;15.352;2023-07-22T08:54:40;98172.56;;;24.20;51.09
77799;BME280;66989;50.426;15.352;2023-07-22T08:57:07;98178.00;;;23.72;50.36
77799;BME280;66989;50.426;15.352;2023-07-22T08:59:34;98175.16;;;22.76;51.49
77799;BME280;66989;50.426;15.352;2023-07-22T09:02:01;98180.03;;;22.23;54.29
77799;BME280;66989;50.426;15.352;2023-07-22T09:04:26;98187.38;;;21.93;54.00
77799;BME280;66989;50.426;15.352;2023-07-22T09:06:52;98188.88;;;21.96;54.60
77799;BME280;66989;50.426;15.352;2023-07-22T09:09:19;98174.22;;;22.20;53.76
77799;BME280;66989;50.426;15.352;2023-07-22T09:11:45;98169.97;;;22.47;53.42
77799;BME280;66989;50.426;15.352;2023-07-22T09:14:11;98169.84;;;22.62;54.32
77799;BME280;66989;50.426;15.352;2023-07-22T09:16:37;98162.53;;;22.77;54.01
77799;BME280;66989;50.426;15.352;2023-07-22T09:19:03;98164.53;;;22.96;53.79
77799;BME280;66989;50.426;15.352;2023-07-22T09:21:29;98167.78;;;22.85;53.23
77799;BME280;66989;50.426;15.352;2023-07-22T09:23:54;98161.91;;;22.75;52.57
77799;BME280;66989;50.426;15.352;2023-07-22T09:26:20;98171.72;;;22.61;52.90
77799;BME280;66989;50.426;15.352;2023-07-22T09:28:57;98169.34;;;22.30;54.09
77799;BME280;66989;50.426;15.352;2023-07-22T09:31:27;98169.03;;;22.18;53.51
77799;BME280;66989;50.426;15.352;2023-07-22T09:34:09;98182.25;;;21.98;52.99
77799;BME280;66989;50.426;15.352;2023-07-22T09:36:58;98177.63;;;22.07;53.04
77799;BME280;66989;50.426;15.352;2023-07-22T09:39:28;98167.50;;;22.09;52.58
77799;BME280;66989;50.426;15.352;2023-07-22T09:41:56;98173.44;;;22.26;52.30
77799;BME280;66989;50.426;15.352;2023-07-22T09:44:29;98171.25;;;22.79;51.17
77799;BME280;66989;50.426;15.352;2023-07-22T09:46:54;98167.16;;;22.83;50.78
77799;BME280;66989;50.426;15.352;2023-07-22T09:49:20;98169.38;;;22.79;50.47
77799;BME280;66989;50.426;15.352;2023-07-22T09:51:46;98172.81;;;22.95;50.06
77799;BME280;66989;50.426;15.352;2023-07-22T09:54:11;98170.50;;;22.92;49.92
77799;BME280;66989;50.426;15.352;2023-07-22T09:56:48;98159.97;;;22.97;50.06
77799;BME280;66989;50.426;15.352;2023-07-22T09:59:13;98168.16;;;22.82;49.76
77799;BME280;66989;50.426;15.352;2023-07-22T10:01:40;98170.88;;;22.61;49.88
77799;BME280;66989;50.426;15.352;2023-07-22T10:04:06;98168.16;;;22.54;49.68
77799;BME280;66989;50.426;15.352;2023-07-22T10:06:32;98168.16;;;22.54;48.87
77799;BME280;66989;50.426;15.352;2023-07-22T10:09:04;98164.72;;;23.29;47.86
77799;BME280;66989;50.426;15.352;2023-07-22T10:11:34;98171.50;;;23.53;47.27
77799;BME280;66989;50.426;15.352;2023-07-22T10:14:02;98161.59;;;23.61;45.39
77799;BME280;66989;50.426;15.352;2023-07-22T10:16:27;98155.88;;;23.83;45.25
77799;BME280;66989;50.426;15.352;2023-07-22T10:18:53;98152.66;;;23.53;46.01
77799;BME280;66989;50.426;15.352;2023-07-22T10:21:19;98156.50;;;23.31;45.89
77799;BME280;66989;50.426;15.352;2023-07-22T10:23:47;98163.25;;;23.27;46.10
77799;BME280;66989;50.426;15.352;2023-07-22T10:26:15;98154.28;;;23.13;46.64
77799;BME280;66989;50.426;15.352;2023-07-22T10:28:46;98157.34;;;22.75;47.81
77799;BME280;66989;50.426;15.352;2023-07-22T10:31:12;98163.00;;;22.52;47.73
77799;BME280;66989;50.426;15.352;2023-07-22T10:33:39;98167.84;;;22.42;47.96
77799;BME280;66989;50.426;15.352;2023-07-22T10:36:12;98160.34;;;22.38;48.58
77799;BME280;66989;50.426;15.352;2023-07-22T10:38:38;98151.81;;;23.18;47.76
77799;BME280;66989;50.426;15.352;2023-07-22T10:41:17;98148.66;;;23.36;46.34
77799;BME280;66989;50.426;15.352;2023-07-22T10:43:53;98146.59;;;23.45;46.19
77799;BME280;66989;50.426;15.352;2023-07-22T10:46:31;98154.03;;;23.36;46.21
77799;BME280;66989;50.426;15.352;2023-07-22T10:49:16;98154.75;;;23.23;46.96
77799;BME280;66989;50.426;15.352;2023-07-22T10:51:49;98148.34;;;23.66;45.88
77799;BME280;66989;50.426;15.352;2023-07-22T10:54:31;98148.72;;;25.03;43.88
77799;BME280;66989;50.426;15.352;2023-07-22T10:59:48;98119.63;;;26.83;39.77
77799;BME280;66989;50.426;15.352;2023-07-22T11:02:35;98127.75;;;27.45;37.99
77799;BME280;66989;50.426;15.352;2023-07-22T11:05:02;98115.06;;;27.76;35.78
77799;BME280;66989;50.426;15.352;2023-07-22T11:07:42;98127.81;;;28.05;35.16
77799;BME280;66989;50.426;15.352;2023-07-22T11:10:18;98120.66;;;28.34;34.97
77799;BME280;66989;50.426;15.352;2023-07-22T11:12:44;98114.00;;;28.84;34.47
77799;BME280;66989;50.426;15.352;2023-07-22T11:15:10;98117.16;;;29.27;33.88
77799;BME280;66989;50.426;15.352;2023-07-22T11:17:36;98118.00;;;29.16;32.63
77799;BME280;66989;50.426;15.352;2023-07-22T11:20:02;98116.63;;;29.14;32.12
77799;BME280;66989;50.426;15.352;2023-07-22T11:22:29;98122.63;;;28.57;32.64
77799;BME280;66989;50.426;15.352;2023-07-22T11:24:55;98126.75;;;28.06;33.71
77799;BME280;66989;50.426;15.352;2023-07-22T11:27:23;98120.53;;;27.20;35.30
77799;BME280;66989;50.426;15.352;2023-07-22T11:29:49;98118.00;;;26.57;37.61
77799;BME280;66989;50.426;15.352;2023-07-22T11:32:17;98122.53;;;26.38;38.13
77799;BME280;66989;50.426;15.352;2023-07-22T11:34:43;98129.09;;;25.86;38.39
77799;BME280;66989;50.426;15.352;2023-07-22T11:37:13;98115.34;;;25.49;38.10
77799;BME280;66989;50.426;15.352;2023-07-22T11:39:40;98118.56;;;25.26;36.80
77799;BME280;66989;50.426;15.352;2023-07-22T11:42:07;98118.19;;;25.16;38.31
77799;BME280;66989;50.426;15.352;2023-07-22T11:44:33;98117.63;;;25.46;37.32
77799;BME280;66989;50.426;15.352;2023-07-22T11:47:04;98106.28;;;26.45;36.59
77799;BME280;66989;50.426;15.352;2023-07-22T11:49:34;98106.09;;;27.08;34.77
77799;BME280;66989;50.426;15.352;2023-07-22T11:52:11;98108.00;;;27.56;33.49
77799;BME280;66989;50.426;15.352;2023-07-22T11:54:41;98092.91;;;27.49;33.62
77799;BME280;66989;50.426;15.352;2023-07-22T11:57:14;98099.97;;;27.31;33.99
77799;BME280;66989;50.426;15.352;2023-07-22T11:59:46;98099.91;;;27.68;33.38
77799;BME280;66989;50.426;15.352;2023-07-22T12:02:17;98084.78;;;27.12;33.74
77799;BME280;66989;50.426;15.352;2023-07-22T12:04:50;98093.25;;;26.79;33.96
77799;BME280;66989;50.426;15.352;2023-07-22T12:07:32;98087.19;;;26.33;35.43
77799;BME280;66989;50.426;15.352;2023-07-22T12:10:00;98090.53;;;26.29;35.46
77799;BME280;66989;50.426;15.352;2023-07-22T12:13:00;98095.69;;;25.80;35.32
77799;BME280;66989;50.426;15.352;2023-07-22T12:15:25;98096.78;;;25.73;35.60
77799;BME280;66989;50.426;15.352;2023-07-22T12:17:56;98096.81;;;25.59;35.99
77799;BME280;66989;50.426;15.352;2023-07-22T12:20:26;98094.09;;;25.59;36.14
77799;BME280;66989;50.426;15.352;2023-07-22T12:22:52;98091.41;;;25.59;36.39
77799;BME280;66989;50.426;15.352;2023-07-22T12:25:18;98091.47;;;25.46;36.67
77799;BME280;66989;50.426;15.352;2023-07-22T12:27:44;98092.78;;;25.37;37.69
77799;BME280;66989;50.426;15.352;2023-07-22T12:30:10;98081.88;;;25.50;36.95
77799;BME280;66989;50.426;15.352;2023-07-22T12:32:35;98091.44;;;25.53;37.31
77799;BME280;66989;50.426;15.352;2023-07-22T12:35:01;98078.63;;;26.11;36.60
77799;BME280;66989;50.426;15.352;2023-07-22T12:37:28;98082.44;;;26.29;36.53
77799;BME280;66989;50.426;15.352;2023-07-22T12:39:54;98077.47;;;26.94;34.92
77799;BME280;66989;50.426;15.352;2023-07-22T12:42:19;98073.19;;;27.41;34.43
77799;BME280;66989;50.426;15.352;2023-07-22T12:44:44;98062.94;;;27.92;33.54
77799;BME280;66989;50.426;15.352;2023-07-22T12:47:11;98055.84;;;27.91;33.01
77799;BME280;66989;50.426;15.352;2023-07-22T12:49:36;98062.56;;;27.88;32.29
77799;BME280;66989;50.426;15.352;2023-07-22T12:52:02;98062.88;;;28.10;31.75